sensor_id;sensor_type;location;lat;lon;timestamp;P1;durP1;ratioP1;P2;durP2;ratioP2
65896;SDS011;52677;50.898;10.854;2023-04-03T00:01:28;4.03;;;1.70;;
65896;SDS011;52677;50.898;10.854;2023-04-03T00:03:28;6.53;;;1.83;;
65896;SDS011;52677;50.898;10.854;2023-04-03T00:05:28;3.83;;;1.80;;
65896;SDS011;52677;50.898;10.854;2023-04-03T00:07:29;4.20;;;1.80;;
65896;SDS011;52677;50.898;10.854;2023-04-03T00:09:29;4.15;;;1.70;;
65896;SDS011;52677;50.898;10.854;2023-04-03T00:11:30;3.80;;;1.55;;
65896;SDS011;52677;50.898;10.854;2023-04-03T00:13:30;7.85;;;2.30;;
65896;SDS011;52677;50.898;10.854;2023-04-03T00:15:31;7.53;;;1.95;;
65896;SDS011;52677;50.898;10.854;2023-04-03T00:17:31;4.63;;;2.22;;
65896;SDS011;52677;50.898;10.854;2023-04-03T00:19:32;3.60;;;2.05;;
65896;SDS011;52677;50.898;10.854;2023-04-03T00:21:32;3.72;;;1.38;;
65896;SDS011;52677;50.898;10.854;2023-04-03T00:23:32;7.47;;;1.95;;
65896;SDS011;52677;50.898;10.854;2023-04-03T00:25:33;7.43;;;1.90;;
65896;SDS011;52677;50.898;10.854;2023-04-03T00:27:35;5.47;;;1.90;;
65896;SDS011;52677;50.898;10.854;2023-04-03T00:29:36;3.83;;;2.13;;
65896;SDS011;52677;50.898;10.854;2023-04-03T00:31:37;3.63;;;2.72;;
65896;SDS011;52677;50.898;10.854;2023-04-03T00:33:37;4.50;;;1.77;;
65896;SDS011;52677;50.898;10.854;2023-04-03T00:35:38;4.55;;;2.05;;
65896;SDS011;52677;50.898;10.854;2023-04-03T00:37:38;3.55;;;1.80;;
65896;SDS011;52677;50.898;10.854;2023-04-03T00:39:39;3.22;;;1.90;;
65896;SDS011;52677;50.898;10.854;2023-04-03T00:41:39;3.35;;;1.63;;
65896;SDS011;52677;50.898;10.854;2023-04-03T00:43:40;2.70;;;1.85;;
65896;SDS011;52677;50.898;10.854;2023-04-03T00:45:42;4.47;;;1.67;;
65896;SDS011;52677;50.898;10.854;2023-04-03T00:47:44;3.72;;;1.80;;
65896;SDS011;52677;50.898;10.854;2023-04-03T00:49:45;2.75;;;1.75;;
65896;SDS011;52677;50.898;10.854;2023-04-03T00:51:45;5.60;;;2.42;;
65896;SDS011;52677;50.898;10.854;2023-04-03T00:54:05;4.28;;;1.70;;
65896;SDS011;52677;50.898;10.854;2023-04-03T00:56:08;4.80;;;1.92;;
65896;SDS011;52677;50.898;10.854;2023-04-03T00:58:11;6.68;;;2.05;;
65896;SDS011;52677;50.898;10.854;2023-04-03T01:00:14;3.67;;;2.08;;
65896;SDS011;52677;50.898;10.854;2023-04-03T01:02:18;3.13;;;1.75;;
65896;SDS011;52677;50.898;10.854;2023-04-03T01:04:52;3.47;;;1.63;;
65896;SDS011;52677;50.898;10.854;2023-04-03T01:06:47;4.68;;;1.45;;
65896;SDS011;52677;50.898;10.854;2023-04-03T01:08:48;3.33;;;2.00;;
65896;SDS011;52677;50.898;10.854;2023-04-03T01:10:50;5.13;;;1.70;;
65896;SDS011;52677;50.898;10.854;2023-04-03T01:12:50;3.88;;;1.98;;
65896;SDS011;52677;50.898;10.854;2023-04-03T01:14:53;3.20;;;1.90;;
65896;SDS011;52677;50.898;10.854;2023-04-03T01:16:55;7.72;;;2.00;;
65896;SDS011;52677;50.898;10.854;2023-04-03T01:18:55;3.60;;;1.50;;
65896;SDS011;52677;50.898;10.854;2023-04-03T01:21:09;4.20;;;1.70;;
65896;SDS011;52677;50.898;10.854;2023-04-03T01:25:57;3.97;;;1.65;;
65896;SDS011;52677;50.898;10.854;2023-04-03T01:27:57;3.28;;;1.60;;
65896;SDS011;52677;50.898;10.854;2023-04-03T01:29:57;3.90;;;1.73;;
65896;SDS011;52677;50.898;10.854;2023-04-03T01:31:59;4.40;;;1.92;;
65896;SDS011;52677;50.898;10.854;2023-04-03T01:34:02;6.72;;;2.50;;
65896;SDS011;52677;50.898;10.854;2023-04-03T01:36:03;3.95;;;1.58;;
65896;SDS011;52677;50.898;10.854;2023-04-03T01:38:04;5.45;;;2.00;;
65896;SDS011;52677;50.898;10.854;2023-04-03T01:40:05;3.20;;;1.90;;
65896;SDS011;52677;50.898;10.854;2023-04-03T01:42:06;5.00;;;1.60;;
65896;SDS011;52677;50.898;10.854;2023-04-03T01:44:07;4.45;;;1.70;;
65896;SDS011;52677;50.898;10.854;2023-04-03T01:46:07;2.83;;;1.60;;
65896;SDS011;52677;50.898;10.854;2023-04-03T01:48:08;5.88;;;2.15;;
65896;SDS011;52677;50.898;10.854;2023-04-03T01:50:08;4.70;;;1.90;;
65896;SDS011;52677;50.898;10.854;2023-04-03T01:52:09;7.57;;;1.98;;
65896;SDS011;52677;50.898;10.854;2023-04-03T01:54:09;6.40;;;1.70;;
65896;SDS011;52677;50.898;10.854;2023-04-03T01:56:10;4.82;;;1.67;;
65896;SDS011;52677;50.898;10.854;2023-04-03T01:58:10;3.75;;;1.70;;
65896;SDS011;52677;50.898;10.854;2023-04-03T02:00:11;6.43;;;1.90;;
65896;SDS011;52677;50.898;10.854;2023-04-03T02:02:12;7.93;;;1.52;;
65896;SDS011;52677;50.898;10.854;2023-04-03T02:04:14;6.80;;;2.00;;
65896;SDS011;52677;50.898;10.854;2023-04-03T02:06:14;7.07;;;1.83;;
65896;SDS011;52677;50.898;10.854;2023-04-03T02:08:15;4.75;;;1.80;;
65896;SDS011;52677;50.898;10.854;2023-04-03T02:10:17;3.55;;;1.40;;
65896;SDS011;52677;50.898;10.854;2023-04-03T02:12:18;3.80;;;1.92;;
65896;SDS011;52677;50.898;10.854;2023-04-03T02:14:18;3.95;;;1.60;;
65896;SDS011;52677;50.898;10.854;2023-04-03T02:16:19;7.05;;;1.90;;
65896;SDS011;52677;50.898;10.854;2023-04-03T02:18:19;5.82;;;1.80;;
65896;SDS011;52677;50.898;10.854;2023-04-03T02:20:20;4.05;;;1.73;;
65896;SDS011;52677;50.898;10.854;2023-04-03T02:22:20;6.32;;;2.28;;
65896;SDS011;52677;50.898;10.854;2023-04-03T02:24:21;5.90;;;2.30;;
65896;SDS011;52677;50.898;10.854;2023-04-03T02:26:21;3.60;;;1.70;;
65896;SDS011;52677;50.898;10.854;2023-04-03T02:28:22;5.30;;;1.88;;
65896;SDS011;52677;50.898;10.854;2023-04-03T02:30:22;2.95;;;1.58;;
65896;SDS011;52677;50.898;10.854;2023-04-03T02:32:22;4.75;;;1.67;;
65896;SDS011;52677;50.898;10.854;2023-04-03T02:34:23;6.28;;;1.85;;
65896;SDS011;52677;50.898;10.854;2023-04-03T02:36:23;5.00;;;1.95;;
65896;SDS011;52677;50.898;10.854;2023-04-03T02:38:24;4.65;;;1.70;;
65896;SDS011;52677;50.898;10.854;2023-04-03T02:40:25;5.75;;;1.65;;
65896;SDS011;52677;50.898;10.854;2023-04-03T02:42:25;5.22;;;1.42;;
65896;SDS011;52677;50.898;10.854;2023-04-03T02:44:26;8.40;;;2.55;;
65896;SDS011;52677;50.898;10.854;2023-04-03T02:46:26;3.92;;;2.00;;
65896;SDS011;52677;50.898;10.854;2023-04-03T02:48:26;4.80;;;1.85;;
65896;SDS011;52677;50.898;10.854;2023-04-03T02:50:27;3.65;;;1.85;;
65896;SDS011;52677;50.898;10.854;2023-04-03T02:52:27;5.57;;;2.22;;
65896;SDS011;52677;50.898;10.854;2023-04-03T02:54:28;10.70;;;2.03;;
65896;SDS011;52677;50.898;10.854;2023-04-03T02:56:30;6.93;;;2.30;;
65896;SDS011;52677;50.898;10.854;2023-04-03T02:58:30;4.47;;;2.05;;
65896;SDS011;52677;50.898;10.854;2023-04-03T03:00:31;5.85;;;1.98;;
65896;SDS011;52677;50.898;10.854;2023-04-03T03:02:31;4.07;;;1.83;;
65896;SDS011;52677;50.898;10.854;2023-04-03T03:04:31;7.50;;;1.90;;
65896;SDS011;52677;50.898;10.854;2023-04-03T03:06:32;4.63;;;1.83;;
65896;SDS011;52677;50.898;10.854;2023-04-03T03:08:32;3.55;;;2.10;;
65896;SDS011;52677;50.898;10.854;2023-04-03T03:10:33;5.57;;;1.92;;
65896;SDS011;52677;50.898;10.854;2023-04-03T03:12:34;6.50;;;2.20;;
65896;SDS011;52677;50.898;10.854;2023-04-03T03:14:34;4.30;;;1.80;;
65896;SDS011;52677;50.898;10.854;2023-04-03T03:16:35;4.72;;;1.95;;
65896;SDS011;52677;50.898;10.854;2023-04-03T03:18:35;4.35;;;2.10;;
65896;SDS011;52677;50.898;10.854;2023-04-03T03:20:36;7.70;;;2.28;;
65896;SDS011;52677;50.898;10.854;2023-04-03T03:22:36;4.68;;;2.05;;
65896;SDS011;52677;50.898;10.854;2023-04-03T03:24:36;8.95;;;2.63;;
65896;SDS011;52677;50.898;10.854;2023-04-03T03:26:37;7.68;;;2.33;;
65896;SDS011;52677;50.898;10.854;2023-04-03T03:28:37;5.68;;;2.28;;
65896;SDS011;52677;50.898;10.854;2023-04-03T03:30:39;4.05;;;2.28;;
65896;SDS011;52677;50.898;10.854;2023-04-03T03:32:39;5.10;;;1.92;;
65896;SDS011;52677;50.898;10.854;2023-04-03T03:34:39;5.38;;;1.77;;
65896;SDS011;52677;50.898;10.854;2023-04-03T03:36:40;6.05;;;2.00;;
65896;SDS011;52677;50.898;10.854;2023-04-03T03:38:41;6.35;;;2.00;;
65896;SDS011;52677;50.898;10.854;2023-04-03T03:40:41;8.18;;;2.50;;
65896;SDS011;52677;50.898;10.854;2023-04-03T03:42:41;5.78;;;2.00;;
65896;SDS011;52677;50.898;10.854;2023-04-03T03:44:42;5.60;;;2.05;;
65896;SDS011;52677;50.898;10.854;2023-04-03T03:46:42;3.95;;;2.08;;
65896;SDS011;52677;50.898;10.854;2023-04-03T03:48:42;5.53;;;2.13;;
65896;SDS011;52677;50.898;10.854;2023-04-03T03:50:43;5.63;;;2.40;;
65896;SDS011;52677;50.898;10.854;2023-04-03T03:52:43;4.30;;;2.42;;
65896;SDS011;52677;50.898;10.854;2023-04-03T03:54:44;8.73;;;2.50;;
65896;SDS011;52677;50.898;10.854;2023-04-03T03:56:44;8.63;;;3.08;;
65896;SDS011;52677;50.898;10.854;2023-04-03T03:58:45;4.80;;;2.47;;
65896;SDS011;52677;50.898;10.854;2023-04-03T04:00:46;7.40;;;3.58;;
65896;SDS011;52677;50.898;10.854;2023-04-03T04:02:46;7.97;;;2.90;;
65896;SDS011;52677;50.898;10.854;2023-04-03T04:04:48;6.03;;;3.38;;
65896;SDS011;52677;50.898;10.854;2023-04-03T04:06:49;7.72;;;3.40;;
65896;SDS011;52677;50.898;10.854;2023-04-03T04:08:49;4.65;;;2.97;;
65896;SDS011;52677;50.898;10.854;2023-04-03T04:10:49;4.68;;;2.40;;
65896;SDS011;52677;50.898;10.854;2023-04-03T04:12:50;4.05;;;2.28;;
65896;SDS011;52677;50.898;10.854;2023-04-03T04:14:51;5.38;;;3.10;;
65896;SDS011;52677;50.898;10.854;2023-04-03T04:16:51;5.70;;;2.70;;
65896;SDS011;52677;50.898;10.854;2023-04-03T04:18:52;6.53;;;2.70;;
65896;SDS011;52677;50.898;10.854;2023-04-03T04:20:52;6.20;;;2.60;;
65896;SDS011;52677;50.898;10.854;2023-04-03T04:22:52;6.63;;;2.83;;
65896;SDS011;52677;50.898;10.854;2023-04-03T04:24:52;6.55;;;2.85;;
65896;SDS011;52677;50.898;10.854;2023-04-03T04:26:53;10.27;;;2.75;;
65896;SDS011;52677;50.898;10.854;2023-04-03T04:28:53;9.15;;;2.72;;
65896;SDS011;52677;50.898;10.854;2023-04-03T04:30:53;5.20;;;2.55;;
65896;SDS011;52677;50.898;10.854;2023-04-03T04:32:54;8.05;;;2.78;;
65896;SDS011;52677;50.898;10.854;2023-04-03T04:34:55;8.70;;;2.83;;
65896;SDS011;52677;50.898;10.854;2023-04-03T04:36:55;6.72;;;2.65;;
65896;SDS011;52677;50.898;10.854;2023-04-03T04:38:55;10.05;;;3.13;;
65896;SDS011;52677;50.898;10.854;2023-04-03T04:40:56;7.53;;;2.70;;
65896;SDS011;52677;50.898;10.854;2023-04-03T04:42:57;7.93;;;3.30;;
65896;SDS011;52677;50.898;10.854;2023-04-03T04:44:57;6.85;;;3.00;;
65896;SDS011;52677;50.898;10.854;2023-04-03T04:46:57;9.35;;;3.58;;
65896;SDS011;52677;50.898;10.854;2023-04-03T04:48:58;5.82;;;3.15;;
65896;SDS011;52677;50.898;10.854;2023-04-03T04:50:58;6.50;;;2.90;;
65896;SDS011;52677;50.898;10.854;2023-04-03T04:52:58;6.30;;;3.42;;
65896;SDS011;52677;50.898;10.854;2023-04-03T04:54:59;9.52;;;3.35;;
65896;SDS011;52677;50.898;10.854;2023-04-03T04:56:59;7.35;;;3.95;;
65896;SDS011;52677;50.898;10.854;2023-04-03T04:59:00;7.68;;;3.90;;
65896;SDS011;52677;50.898;10.854;2023-04-03T05:01:04;7.32;;;4.05;;
65896;SDS011;52677;50.898;10.854;2023-04-03T05:03:06;7.47;;;3.38;;
65896;SDS011;52677;50.898;10.854;2023-04-03T05:05:06;5.90;;;3.58;;
65896;SDS011;52677;50.898;10.854;2023-04-03T05:07:07;8.77;;;3.97;;
65896;SDS011;52677;50.898;10.854;2023-04-03T05:09:08;11.10;;;4.13;;
65896;SDS011;52677;50.898;10.854;2023-04-03T05:11:09;7.40;;;3.55;;
65896;SDS011;52677;50.898;10.854;2023-04-03T05:13:10;6.05;;;3.80;;
65896;SDS011;52677;50.898;10.854;2023-04-03T05:15:10;5.85;;;4.05;;
65896;SDS011;52677;50.898;10.854;2023-04-03T05:17:10;12.55;;;4.07;;
65896;SDS011;52677;50.898;10.854;2023-04-03T05:19:11;8.23;;;4.28;;
65896;SDS011;52677;50.898;10.854;2023-04-03T05:21:11;10.02;;;4.57;;
65896;SDS011;52677;50.898;10.854;2023-04-03T05:23:11;7.63;;;5.18;;
65896;SDS011;52677;50.898;10.854;2023-04-03T05:25:12;9.55;;;4.93;;
65896;SDS011;52677;50.898;10.854;2023-04-03T05:27:12;8.57;;;4.85;;
65896;SDS011;52677;50.898;10.854;2023-04-03T05:29:13;6.95;;;4.68;;
65896;SDS011;52677;50.898;10.854;2023-04-03T05:31:13;9.13;;;4.88;;
65896;SDS011;52677;50.898;10.854;2023-04-03T05:33:13;6.60;;;4.63;;
65896;SDS011;52677;50.898;10.854;2023-04-03T05:35:14;9.57;;;4.78;;
65896;SDS011;52677;50.898;10.854;2023-04-03T05:37:14;8.98;;;4.25;;
65896;SDS011;52677;50.898;10.854;2023-04-03T05:39:14;8.32;;;5.20;;
65896;SDS011;52677;50.898;10.854;2023-04-03T05:41:15;14.43;;;5.38;;
65896;SDS011;52677;50.898;10.854;2023-04-03T05:43:16;9.13;;;5.47;;
65896;SDS011;52677;50.898;10.854;2023-04-03T05:45:16;8.65;;;5.07;;
65896;SDS011;52677;50.898;10.854;2023-04-03T05:47:17;9.05;;;5.28;;
65896;SDS011;52677;50.898;10.854;2023-04-03T05:49:18;11.20;;;5.50;;
65896;SDS011;52677;50.898;10.854;2023-04-03T05:51:19;11.27;;;4.78;;
65896;SDS011;52677;50.898;10.854;2023-04-03T05:53:25;11.02;;;5.15;;
65896;SDS011;52677;50.898;10.854;2023-04-03T05:55:28;7.13;;;5.40;;
65896;SDS011;52677;50.898;10.854;2023-04-03T05:57:28;11.15;;;5.20;;
65896;SDS011;52677;50.898;10.854;2023-04-03T05:59:28;9.68;;;5.15;;
65896;SDS011;52677;50.898;10.854;2023-04-03T06:01:29;8.38;;;5.80;;
65896;SDS011;52677;50.898;10.854;2023-04-03T06:03:29;9.35;;;5.60;;
65896;SDS011;52677;50.898;10.854;2023-04-03T06:05:29;10.65;;;4.95;;
65896;SDS011;52677;50.898;10.854;2023-04-03T06:07:30;13.48;;;5.13;;
65896;SDS011;52677;50.898;10.854;2023-04-03T06:09:31;10.18;;;6.07;;
65896;SDS011;52677;50.898;10.854;2023-04-03T06:11:31;8.40;;;5.28;;
65896;SDS011;52677;50.898;10.854;2023-04-03T06:13:31;8.35;;;4.90;;
65896;SDS011;52677;50.898;10.854;2023-04-03T06:15:33;10.55;;;5.60;;
65896;SDS011;52677;50.898;10.854;2023-04-03T06:17:33;10.20;;;5.18;;
65896;SDS011;52677;50.898;10.854;2023-04-03T06:19:34;9.35;;;5.22;;
65896;SDS011;52677;50.898;10.854;2023-04-03T06:21:35;6.45;;;4.88;;
65896;SDS011;52677;50.898;10.854;2023-04-03T06:23:35;6.40;;;4.57;;
65896;SDS011;52677;50.898;10.854;2023-04-03T06:25:36;8.82;;;5.40;;
65896;SDS011;52677;50.898;10.854;2023-04-03T06:27:36;7.38;;;5.10;;
65896;SDS011;52677;50.898;10.854;2023-04-03T06:29:37;11.18;;;4.82;;
65896;SDS011;52677;50.898;10.854;2023-04-03T06:31:37;9.20;;;4.80;;
65896;SDS011;52677;50.898;10.854;2023-04-03T06:33:37;6.47;;;4.97;;
65896;SDS011;52677;50.898;10.854;2023-04-03T06:35:38;10.57;;;5.30;;
65896;SDS011;52677;50.898;10.854;2023-04-03T06:37:38;8.15;;;4.65;;
65896;SDS011;52677;50.898;10.854;2023-04-03T06:39:38;9.63;;;4.93;;
65896;SDS011;52677;50.898;10.854;2023-04-03T06:41:39;9.98;;;5.53;;
65896;SDS011;52677;50.898;10.854;2023-04-03T06:43:39;8.73;;;5.38;;
65896;SDS011;52677;50.898;10.854;2023-04-03T06:45:40;8.80;;;5.93;;
65896;SDS011;52677;50.898;10.854;2023-04-03T06:47:41;10.13;;;5.63;;
65896;SDS011;52677;50.898;10.854;2023-04-03T06:49:41;9.15;;;5.85;;
65896;SDS011;52677;50.898;10.854;2023-04-03T06:51:42;8.35;;;4.78;;
65896;SDS011;52677;50.898;10.854;2023-04-03T06:53:43;6.82;;;4.90;;
65896;SDS011;52677;50.898;10.854;2023-04-03T06:55:43;8.13;;;5.07;;
65896;SDS011;52677;50.898;10.854;2023-04-03T06:57:43;8.02;;;4.70;;
65896;SDS011;52677;50.898;10.854;2023-04-03T06:59:44;9.65;;;5.18;;
65896;SDS011;52677;50.898;10.854;2023-04-03T07:01:44;12.18;;;6.15;;
65896;SDS011;52677;50.898;10.854;2023-04-03T07:03:45;10.57;;;5.22;;
65896;SDS011;52677;50.898;10.854;2023-04-03T07:05:46;7.40;;;4.80;;
65896;SDS011;52677;50.898;10.854;2023-04-03T07:07:46;7.90;;;4.65;;
65896;SDS011;52677;50.898;10.854;2023-04-03T07:09:47;8.95;;;5.32;;
65896;SDS011;52677;50.898;10.854;2023-04-03T07:11:48;7.78;;;4.20;;
65896;SDS011;52677;50.898;10.854;2023-04-03T07:13:48;8.98;;;4.50;;
65896;SDS011;52677;50.898;10.854;2023-04-03T07:15:49;8.02;;;4.60;;
65896;SDS011;52677;50.898;10.854;2023-04-03T07:17:50;9.27;;;5.20;;
65896;SDS011;52677;50.898;10.854;2023-04-03T07:19:50;7.47;;;4.25;;
65896;SDS011;52677;50.898;10.854;2023-04-03T07:21:51;7.63;;;4.35;;
65896;SDS011;52677;50.898;10.854;2023-04-03T07:23:51;7.25;;;4.78;;
65896;SDS011;52677;50.898;10.854;2023-04-03T07:25:52;7.72;;;4.05;;
65896;SDS011;52677;50.898;10.854;2023-04-03T07:27:52;5.25;;;4.22;;
65896;SDS011;52677;50.898;10.854;2023-04-03T07:29:54;6.85;;;4.72;;
65896;SDS011;52677;50.898;10.854;2023-04-03T07:31:55;8.00;;;4.40;;
65896;SDS011;52677;50.898;10.854;2023-04-03T07:33:56;8.55;;;4.35;;
65896;SDS011;52677;50.898;10.854;2023-04-03T07:35:57;9.75;;;4.95;;
65896;SDS011;52677;50.898;10.854;2023-04-03T07:37:57;8.95;;;3.80;;
65896;SDS011;52677;50.898;10.854;2023-04-03T07:39:58;6.82;;;3.70;;
65896;SDS011;52677;50.898;10.854;2023-04-03T07:41:59;5.22;;;3.60;;
65896;SDS011;52677;50.898;10.854;2023-04-03T07:44:00;6.80;;;3.65;;
65896;SDS011;52677;50.898;10.854;2023-04-03T07:46:00;6.75;;;3.85;;
65896;SDS011;52677;50.898;10.854;2023-04-03T07:48:01;8.60;;;4.88;;
65896;SDS011;52677;50.898;10.854;2023-04-03T07:50:01;7.40;;;4.05;;
65896;SDS011;52677;50.898;10.854;2023-04-03T07:52:02;9.98;;;4.40;;
65896;SDS011;52677;50.898;10.854;2023-04-03T07:54:03;14.85;;;6.18;;
65896;SDS011;52677;50.898;10.854;2023-04-03T07:56:04;15.95;;;6.95;;
65896;SDS011;52677;50.898;10.854;2023-04-03T07:58:04;20.60;;;7.53;;
65896;SDS011;52677;50.898;10.854;2023-04-03T08:00:05;24.52;;;7.97;;
65896;SDS011;52677;50.898;10.854;2023-04-03T08:02:08;16.33;;;8.00;;
65896;SDS011;52677;50.898;10.854;2023-04-03T08:04:11;15.10;;;7.45;;
65896;SDS011;52677;50.898;10.854;2023-04-03T08:06:12;17.05;;;6.80;;
65896;SDS011;52677;50.898;10.854;2023-04-03T08:10:19;9.95;;;5.03;;
65896;SDS011;52677;50.898;10.854;2023-04-03T08:12:20;12.18;;;5.32;;
65896;SDS011;52677;50.898;10.854;2023-04-03T08:14:20;10.35;;;4.63;;
65896;SDS011;52677;50.898;10.854;2023-04-03T08:16:21;8.23;;;4.93;;
65896;SDS011;52677;50.898;10.854;2023-04-03T08:18:23;8.88;;;4.85;;
65896;SDS011;52677;50.898;10.854;2023-04-03T08:20:24;10.45;;;4.72;;
65896;SDS011;52677;50.898;10.854;2023-04-03T08:22:25;13.07;;;4.38;;
65896;SDS011;52677;50.898;10.854;2023-04-03T08:24:26;9.15;;;4.18;;
65896;SDS011;52677;50.898;10.854;2023-04-03T08:26:26;8.82;;;3.88;;
65896;SDS011;52677;50.898;10.854;2023-04-03T08:28:27;9.55;;;3.70;;
65896;SDS011;52677;50.898;10.854;2023-04-03T08:30:27;7.68;;;3.88;;
65896;SDS011;52677;50.898;10.854;2023-04-03T08:32:27;6.07;;;3.60;;
65896;SDS011;52677;50.898;10.854;2023-04-03T08:34:28;4.93;;;3.15;;
65896;SDS011;52677;50.898;10.854;2023-04-03T08:36:28;4.45;;;2.95;;
65896;SDS011;52677;50.898;10.854;2023-04-03T08:38:29;6.70;;;3.25;;
65896;SDS011;52677;50.898;10.854;2023-04-03T08:40:29;4.80;;;2.90;;
65896;SDS011;52677;50.898;10.854;2023-04-03T08:42:36;4.97;;;2.88;;
65896;SDS011;52677;50.898;10.854;2023-04-03T08:44:48;7.32;;;3.17;;
65896;SDS011;52677;50.898;10.854;2023-04-03T08:49:37;4.13;;;3.05;;
65896;SDS011;52677;50.898;10.854;2023-04-03T08:51:47;7.70;;;2.90;;
65896;SDS011;52677;50.898;10.854;2023-04-03T08:54:14;5.03;;;2.83;;
65896;SDS011;52677;50.898;10.854;2023-04-03T08:56:16;6.30;;;3.00;;
65896;SDS011;52677;50.898;10.854;2023-04-03T08:58:23;4.63;;;2.95;;
65896;SDS011;52677;50.898;10.854;2023-04-03T09:00:26;7.82;;;3.03;;
65896;SDS011;52677;50.898;10.854;2023-04-03T09:02:34;6.43;;;2.80;;
65896;SDS011;52677;50.898;10.854;2023-04-03T09:04:41;3.63;;;1.90;;
65896;SDS011;52677;50.898;10.854;2023-04-03T09:06:42;5.53;;;3.03;;
65896;SDS011;52677;50.898;10.854;2023-04-03T09:11:27;4.53;;;2.35;;
65896;SDS011;52677;50.898;10.854;2023-04-03T09:13:59;3.97;;;2.70;;
65896;SDS011;52677;50.898;10.854;2023-04-03T09:16:11;6.15;;;3.22;;
65896;SDS011;52677;50.898;10.854;2023-04-03T09:18:35;3.35;;;2.03;;
65896;SDS011;52677;50.898;10.854;2023-04-03T09:22:56;4.72;;;2.20;;
65896;SDS011;52677;50.898;10.854;2023-04-03T09:25:17;11.73;;;2.40;;
65896;SDS011;52677;50.898;10.854;2023-04-03T09:27:32;4.00;;;2.10;;
65896;SDS011;52677;50.898;10.854;2023-04-03T09:29:33;2.08;;;1.63;;
65896;SDS011;52677;50.898;10.854;2023-04-03T09:31:40;4.57;;;2.10;;
65896;SDS011;52677;50.898;10.854;2023-04-03T09:33:42;2.30;;;1.95;;
65896;SDS011;52677;50.898;10.854;2023-04-03T09:35:44;7.28;;;1.95;;
65896;SDS011;52677;50.898;10.854;2023-04-03T09:37:50;5.30;;;1.90;;
65896;SDS011;52677;50.898;10.854;2023-04-03T09:39:58;4.13;;;1.90;;
65896;SDS011;52677;50.898;10.854;2023-04-03T09:44:04;3.13;;;2.45;;
65896;SDS011;52677;50.898;10.854;2023-04-03T09:46:25;5.47;;;1.80;;
65896;SDS011;52677;50.898;10.854;2023-04-03T09:48:30;5.45;;;2.33;;
65896;SDS011;52677;50.898;10.854;2023-04-03T09:50:30;3.22;;;2.40;;
65896;SDS011;52677;50.898;10.854;2023-04-03T09:52:31;3.35;;;2.05;;
65896;SDS011;52677;50.898;10.854;2023-04-03T09:54:36;4.18;;;2.20;;
65896;SDS011;52677;50.898;10.854;2023-04-03T09:56:38;3.83;;;2.10;;
65896;SDS011;52677;50.898;10.854;2023-04-03T09:58:39;4.55;;;2.40;;
65896;SDS011;52677;50.898;10.854;2023-04-03T10:00:41;3.78;;;2.10;;
65896;SDS011;52677;50.898;10.854;2023-04-03T10:02:42;6.20;;;2.85;;
65896;SDS011;52677;50.898;10.854;2023-04-03T10:04:42;3.72;;;2.30;;
65896;SDS011;52677;50.898;10.854;2023-04-03T10:06:44;4.20;;;2.10;;
65896;SDS011;52677;50.898;10.854;2023-04-03T10:09:34;3.38;;;1.70;;
65896;SDS011;52677;50.898;10.854;2023-04-03T10:11:28;5.85;;;2.10;;
65896;SDS011;52677;50.898;10.854;2023-04-03T10:13:29;2.00;;;1.45;;
65896;SDS011;52677;50.898;10.854;2023-04-03T10:15:29;2.40;;;1.52;;
65896;SDS011;52677;50.898;10.854;2023-04-03T10:20:02;3.55;;;1.80;;
65896;SDS011;52677;50.898;10.854;2023-04-03T10:26:50;1.65;;;1.55;;
65896;SDS011;52677;50.898;10.854;2023-04-03T10:36:36;2.53;;;1.73;;
65896;SDS011;52677;50.898;10.854;2023-04-03T10:38:46;4.63;;;1.83;;
65896;SDS011;52677;50.898;10.854;2023-04-03T10:40:58;3.35;;;1.80;;
65896;SDS011;52677;50.898;10.854;2023-04-03T10:45:27;6.07;;;2.00;;
65896;SDS011;52677;50.898;10.854;2023-04-03T10:47:46;1.70;;;1.60;;
65896;SDS011;52677;50.898;10.854;2023-04-03T10:50:00;2.97;;;1.55;;
65896;SDS011;52677;50.898;10.854;2023-04-03T10:54:40;2.25;;;1.70;;
65896;SDS011;52677;50.898;10.854;2023-04-03T10:56:56;4.75;;;2.03;;
65896;SDS011;52677;50.898;10.854;2023-04-03T11:01:29;5.75;;;2.30;;
65896;SDS011;52677;50.898;10.854;2023-04-03T11:03:35;2.72;;;1.92;;
65896;SDS011;52677;50.898;10.854;2023-04-03T11:07:42;6.00;;;2.58;;
65896;SDS011;52677;50.898;10.854;2023-04-03T11:09:48;2.35;;;1.77;;
65896;SDS011;52677;50.898;10.854;2023-04-03T11:11:53;1.95;;;1.75;;
65896;SDS011;52677;50.898;10.854;2023-04-03T11:16:28;2.97;;;2.00;;
65896;SDS011;52677;50.898;10.854;2023-04-03T11:21:10;3.35;;;2.25;;
65896;SDS011;52677;50.898;10.854;2023-04-03T11:25:26;3.90;;;2.42;;
65896;SDS011;52677;50.898;10.854;2023-04-03T11:27:33;3.42;;;2.70;;
65896;SDS011;52677;50.898;10.854;2023-04-03T11:29:40;4.38;;;2.38;;
65896;SDS011;52677;50.898;10.854;2023-04-03T11:31:46;6.67;;;2.67;;
65896;SDS011;52677;50.898;10.854;2023-04-03T11:36:30;2.65;;;2.22;;
65896;SDS011;52677;50.898;10.854;2023-04-03T11:38:34;3.75;;;2.00;;
65896;SDS011;52677;50.898;10.854;2023-04-03T11:40:39;3.10;;;2.10;;
65896;SDS011;52677;50.898;10.854;2023-04-03T11:42:40;2.47;;;2.22;;
65896;SDS011;52677;50.898;10.854;2023-04-03T11:44:43;3.55;;;2.33;;
65896;SDS011;52677;50.898;10.854;2023-04-03T11:48:53;5.70;;;2.35;;
65896;SDS011;52677;50.898;10.854;2023-04-03T11:50:55;3.13;;;2.25;;
65896;SDS011;52677;50.898;10.854;2023-04-03T11:52:57;4.07;;;2.13;;
65896;SDS011;52677;50.898;10.854;2023-04-03T11:55:35;3.47;;;2.50;;
65896;SDS011;52677;50.898;10.854;2023-04-03T11:57:45;3.05;;;2.35;;
65896;SDS011;52677;50.898;10.854;2023-04-03T11:59:47;10.63;;;3.63;;
65896;SDS011;52677;50.898;10.854;2023-04-03T12:01:51;4.03;;;2.30;;
65896;SDS011;52677;50.898;10.854;2023-04-03T12:03:57;3.88;;;2.28;;
65896;SDS011;52677;50.898;10.854;2023-04-03T12:08:16;3.20;;;2.40;;
65896;SDS011;52677;50.898;10.854;2023-04-03T12:10:24;6.38;;;2.10;;
65896;SDS011;52677;50.898;10.854;2023-04-03T12:14:29;2.65;;;2.08;;
65896;SDS011;52677;50.898;10.854;2023-04-03T12:16:31;7.22;;;1.98;;
65896;SDS011;52677;50.898;10.854;2023-04-03T12:18:53;2.67;;;2.10;;
65896;SDS011;52677;50.898;10.854;2023-04-03T12:20:58;2.95;;;2.20;;
65896;SDS011;52677;50.898;10.854;2023-04-03T12:23:22;2.97;;;1.80;;
65896;SDS011;52677;50.898;10.854;2023-04-03T12:25:48;4.53;;;3.08;;
65896;SDS011;52677;50.898;10.854;2023-04-03T12:27:50;2.65;;;2.03;;
65896;SDS011;52677;50.898;10.854;2023-04-03T12:30:06;4.72;;;3.10;;
65896;SDS011;52677;50.898;10.854;2023-04-03T12:32:24;6.00;;;4.03;;
65896;SDS011;52677;50.898;10.854;2023-04-03T12:39:50;3.63;;;2.35;;
65896;SDS011;52677;50.898;10.854;2023-04-03T12:41:58;6.43;;;3.60;;
65896;SDS011;52677;50.898;10.854;2023-04-03T12:46:38;5.80;;;1.98;;
65896;SDS011;52677;50.898;10.854;2023-04-03T12:50:51;6.65;;;2.00;;
65896;SDS011;52677;50.898;10.854;2023-04-03T12:53:02;3.00;;;1.65;;
65896;SDS011;52677;50.898;10.854;2023-04-03T12:55:24;4.93;;;3.38;;
65896;SDS011;52677;50.898;10.854;2023-04-03T12:57:26;5.68;;;3.42;;
65896;SDS011;52677;50.898;10.854;2023-04-03T12:59:30;2.85;;;1.80;;
65896;SDS011;52677;50.898;10.854;2023-04-03T13:01:30;5.32;;;3.08;;
65896;SDS011;52677;50.898;10.854;2023-04-03T13:03:31;5.68;;;2.50;;
65896;SDS011;52677;50.898;10.854;2023-04-03T13:05:31;21.42;;;7.97;;
65896;SDS011;52677;50.898;10.854;2023-04-03T13:07:34;22.85;;;8.25;;
65896;SDS011;52677;50.898;10.854;2023-04-03T13:09:38;9.27;;;4.80;;
65896;SDS011;52677;50.898;10.854;2023-04-03T13:11:39;1.83;;;1.48;;
65896;SDS011;52677;50.898;10.854;2023-04-03T13:13:53;9.30;;;4.75;;